Vernon, Connecticut
Current Conditions -  °F | °C
As of 12:53 AM on Sunday 26 Oct 2014 (Local Time) from KHFD Reporting Station
Broken Clouds Broken Clouds  
Wind Chill: 58°   Ceiling: 12000
Heat Index: 58°   Visibility: 10mi
Dew Point: 45°   Wind: 6mph
Humidity: 62%   Direction: NA
Pressure: 29.53"   Gusts: NA
Location:  41.837°N, 72.4608°W
Report Text: KHFD 260453Z AUTO VRB05KT 10SM BKN120 14/07 A2953 RMK AO2 SLP000 T01440072 401890039
Loading
Personal Weather Stations






























Interactive Weather Map
Tropical Storm Tracking
New forecast layout! Learn more

10-Day Weather Forecast

Advertisements
Track Severe Weather on mobile